createdAt,value
2018-01-18T16:40:34.560Z,77.28
2018-01-18T16:41:34.220Z,76.42
2018-01-18T16:42:34.198Z,77.09
2018-01-18T16:43:34.182Z,77.09
2018-01-18T16:44:34.153Z,77.18
2018-01-18T16:45:34.442Z,78.23
2018-01-18T16:46:34.363Z,78.03
2018-01-18T16:47:34.365Z,78.70
2018-01-18T16:48:34.055Z,79.99
2018-01-18T16:49:34.074Z,79.52
2018-01-18T16:50:34.009Z,79.04
2018-01-18T16:51:42.897Z,79.80
2018-01-18T16:53:27.433Z,80.56
2018-01-18T16:54:27.319Z,80.75
2018-01-18T16:55:27.304Z,80.08
2018-01-18T16:56:27.322Z,79.04
2018-01-18T16:57:27.312Z,79.23
2018-01-18T16:58:27.614Z,78.70
2018-01-18T16:59:27.534Z,79.55
2018-01-18T17:00:27.201Z,78.23
2018-01-18T17:01:27.172Z,77.84
2018-01-18T17:02:27.155Z,79.74
2018-01-18T17:03:27.135Z,79.27
2018-01-18T17:04:27.126Z,79.46
2018-01-18T17:05:27.104Z,79.17
2018-01-18T17:06:27.085Z,81.07
2018-01-18T17:07:27.072Z,80.75
2018-01-18T17:08:27.033Z,80.98
2018-01-18T17:09:27.037Z,81.60
2018-01-18T17:10:27.014Z,81.04
2018-01-18T17:11:26.989Z,82.93
2018-01-18T17:12:26.987Z,82.46
2018-01-18T17:13:26.954Z,81.51
2018-01-18T17:14:26.931Z,81.79
2018-01-18T17:15:26.925Z,83.50
2018-01-18T17:16:26.903Z,82.31
2018-01-18T17:17:26.883Z,81.51
2018-01-18T17:18:26.855Z,79.80
2018-01-18T17:19:26.834Z,79.90
2018-01-18T17:20:26.815Z,80.27
2018-01-18T17:21:26.806Z,81.04
2018-01-18T17:22:26.788Z,79.55
2018-01-18T17:23:26.765Z,80.18
2018-01-18T17:24:26.742Z,79.42
2018-01-18T17:25:26.722Z,79.71
2018-01-18T17:26:26.719Z,79.90
2018-01-18T17:27:26.681Z,80.18
2018-01-18T17:28:26.665Z,78.47
2018-01-18T17:29:26.655Z,78.85
2018-01-18T17:30:26.628Z,79.42
2018-01-18T17:31:26.606Z,79.04
2018-01-18T17:32:26.593Z,79.04
2018-01-18T17:33:26.580Z,78.00
2018-01-18T17:34:26.555Z,78.66
2018-01-18T17:35:26.532Z,78.47
2018-01-18T17:36:26.513Z,79.23
2018-01-18T17:37:26.500Z,78.38
2018-01-18T17:38:26.488Z,78.28
2018-01-18T17:39:26.466Z,78.95
2018-01-18T17:40:26.439Z,79.33
2018-01-18T17:41:26.430Z,78.19
2018-01-18T17:42:26.398Z,78.85
2018-01-18T17:43:26.379Z,79.14
2018-01-18T17:44:26.382Z,79.14
2018-01-18T17:45:26.341Z,79.90
2018-01-18T17:46:27.922Z,81.88
2018-01-18T17:47:26.299Z,81.32
2018-01-18T17:48:26.287Z,81.51
2018-01-18T17:49:26.270Z,81.51
2018-01-18T17:50:26.247Z,81.98
2018-01-18T17:51:26.223Z,80.65
2018-01-18T17:52:26.214Z,80.27
2018-01-18T17:53:26.192Z,81.32
2018-01-18T17:54:26.174Z,80.46
2018-01-18T17:55:26.162Z,81.88
2018-01-18T17:56:26.133Z,82.65
2018-01-18T17:57:26.123Z,81.70
2018-01-18T17:58:26.091Z,82.46
2018-01-18T17:59:26.082Z,83.40
2018-01-18T18:00:26.051Z,82.84
2018-01-18T18:01:26.047Z,83.12
2018-01-18T18:02:26.012Z,83.69
2018-01-18T18:03:25.996Z,81.41
2018-01-18T18:04:25.990Z,80.08
2018-01-18T18:05:25.974Z,79.71
2018-01-18T18:06:25.951Z,83.50
2018-01-18T18:07:25.920Z,83.40
2018-01-18T18:08:25.903Z,84.55
2018-01-18T18:09:25.889Z,85.40
2018-01-18T18:10:25.875Z,85.02
2018-01-18T18:11:25.853Z,84.74
2018-01-18T18:12:25.824Z,84.74
2018-01-18T18:13:25.806Z,84.74
2018-01-18T18:14:25.786Z,84.74
2018-01-18T18:15:25.770Z,85.78
2018-01-18T18:16:25.771Z,88.43
2018-01-18T18:17:25.732Z,86.35
2018-01-18T18:18:25.712Z,85.83
2018-01-18T18:19:25.693Z,87.54
2018-01-18T18:20:25.678Z,86.02
2018-01-18T18:21:25.665Z,84.59
2018-01-18T18:22:25.637Z,85.83
2018-01-18T18:23:25.621Z,87.54
2018-01-18T18:24:25.593Z,87.73
2018-01-18T18:25:25.583Z,85.83
2018-01-18T18:26:25.558Z,85.74
2018-01-18T18:27:25.542Z,86.40
2018-01-18T18:28:25.542Z,89.62
2018-01-18T18:29:25.503Z,88.16
2018-01-18T18:30:25.490Z,87.68
2018-01-18T18:31:25.464Z,89.11
2018-01-18T18:32:25.440Z,90.72
2018-01-18T18:33:25.430Z,89.77
2018-01-18T18:34:25.398Z,91.28
2018-01-18T18:35:25.399Z,91.85
2018-01-18T18:36:25.386Z,91.85
2018-01-18T18:37:25.357Z,93.18
2018-01-18T18:38:25.322Z,91.28
2018-01-18T18:39:25.312Z,91.47
2018-01-18T18:40:25.292Z,90.72
2018-01-18T18:41:25.277Z,89.96
2018-01-18T18:42:25.255Z,91.28
2018-01-18T18:43:25.232Z,91.85
2018-01-18T18:44:25.226Z,92.04
2018-01-18T18:45:25.202Z,92.23
2018-01-18T18:46:25.180Z,92.90
2018-01-18T18:47:25.151Z,92.71
2018-01-18T18:48:25.135Z,91.57
2018-01-18T18:49:25.120Z,91.62
2018-01-18T18:50:25.107Z,92.94
2018-01-18T18:51:25.078Z,92.76
2018-01-18T18:52:25.055Z,93.89
2018-01-18T18:53:25.039Z,93.32
2018-01-18T18:54:25.020Z,93.61
2018-01-18T18:55:25.010Z,94.18
2018-01-18T18:56:24.981Z,92.38
2018-01-18T18:57:24.962Z,92.94
2018-01-18T18:58:24.952Z,92.19
2018-01-18T18:59:24.923Z,92.57
2018-01-18T19:00:24.904Z,92.28
2018-01-18T19:01:24.881Z,93.46
2018-01-18T19:02:24.865Z,92.42
2018-01-18T19:04:46.215Z,91.66
2018-01-18T19:05:45.901Z,90.53
2018-01-18T19:06:46.158Z,90.15
2018-01-18T19:07:46.085Z,90.53
2018-01-18T19:08:45.810Z,90.81
2018-01-18T19:09:45.758Z,90.34
2018-01-18T19:10:45.733Z,89.53
2018-01-18T19:11:45.691Z,88.87
2018-01-18T19:12:45.704Z,88.20
2018-01-18T19:13:45.691Z,87.45
2018-01-18T19:14:45.891Z,87.92
2018-01-18T19:15:45.945Z,88.96
2018-01-18T19:16:45.942Z,88.01
2018-01-18T19:17:45.945Z,87.63
2018-01-18T19:18:45.910Z,86.97
2018-01-18T19:19:45.570Z,87.54
2018-01-18T19:20:45.528Z,87.73
2018-01-18T19:21:55.195Z,87.73
2018-01-18T19:23:38.932Z,86.59
2018-01-18T19:24:38.855Z,86.72
2018-01-18T19:25:38.807Z,85.40
2018-01-18T19:26:38.796Z,86.21
2018-01-18T19:27:38.797Z,86.25
2018-01-18T19:28:38.771Z,86.25
2018-01-18T19:29:39.006Z,86.54
2018-01-18T19:30:38.967Z,86.07
2018-01-18T19:31:39.015Z,85.97
2018-01-18T19:32:39.005Z,86.07
2018-01-18T19:33:38.890Z,85.87
2018-01-18T19:34:38.932Z,85.11
2018-01-18T19:35:38.628Z,85.49
2018-01-18T19:36:38.597Z,86.35
2018-01-18T19:37:38.562Z,85.78
2018-01-18T19:38:38.565Z,86.72
2018-01-18T19:39:38.536Z,85.87
2018-01-18T19:40:38.530Z,85.40
2018-01-18T19:41:38.501Z,85.30
2018-01-18T19:42:38.472Z,85.59
2018-01-18T19:43:38.459Z,84.74
2018-01-18T19:44:38.434Z,84.07
2018-01-18T19:45:38.412Z,85.30
2018-01-18T19:46:38.412Z,85.49
2018-01-18T19:47:38.373Z,84.64
2018-01-18T19:48:38.350Z,85.87
2018-01-18T19:49:38.345Z,86.16
2018-01-18T19:50:38.354Z,85.97
2018-01-18T19:51:38.309Z,85.97
2018-01-18T19:52:38.309Z,86.07
2018-01-18T19:53:38.254Z,84.74
2018-01-18T19:54:38.274Z,85.49
2018-01-18T19:55:38.219Z,85.40
2018-01-18T19:56:38.207Z,85.68
2018-01-18T19:57:38.189Z,85.02
2018-01-18T19:58:38.169Z,85.49
2018-01-18T19:59:38.147Z,85.30
2018-01-18T20:00:38.130Z,86.82
2018-01-18T20:01:38.162Z,87.39
2018-01-18T20:02:47.109Z,86.35
2018-01-18T20:04:31.779Z,88.81
2018-01-18T20:05:31.726Z,88.62
2018-01-18T20:06:31.709Z,89.72
2018-01-18T20:07:31.680Z,88.53
2018-01-18T20:08:31.612Z,87.49
2018-01-18T20:09:31.625Z,86.54
2018-01-18T20:10:31.684Z,86.16
2018-01-18T20:11:31.321Z,87.68
2018-01-18T20:12:31.295Z,88.15
2018-01-18T20:13:31.289Z,87.96
2018-01-18T20:14:31.297Z,88.34
2018-01-18T20:15:31.524Z,87.68
2018-01-18T20:16:31.531Z,88.53
2018-01-18T20:17:31.526Z,87.68
2018-01-18T20:18:31.189Z,87.11
2018-01-18T20:19:31.422Z,87.01
2018-01-18T20:20:31.435Z,87.39
2018-01-18T20:21:31.474Z,87.01
2018-01-18T20:22:31.456Z,87.20
2018-01-18T20:23:31.453Z,85.87
2018-01-18T20:24:31.856Z,86.07
2018-01-18T20:25:31.374Z,86.63
2018-01-18T20:26:31.323Z,87.68
2018-01-18T20:27:31.361Z,87.96
2018-01-18T20:28:31.320Z,88.24
2018-01-18T20:29:31.292Z,87.39
2018-01-18T20:30:31.344Z,87.11
2018-01-18T20:31:31.300Z,86.91
2018-01-18T20:32:30.917Z,87.20
2018-01-18T20:33:31.284Z,87.39
2018-01-18T20:34:31.240Z,87.01
2018-01-18T20:35:31.239Z,87.11
2018-01-18T20:36:31.227Z,87.49
2018-01-18T20:37:31.150Z,88.34
2018-01-18T20:38:31.106Z,88.06
2018-01-18T20:39:30.768Z,87.20
2018-01-18T20:40:30.739Z,87.01
2018-01-18T20:41:30.739Z,87.96
2018-01-18T20:42:30.706Z,87.58
2018-01-18T20:43:30.675Z,86.82
2018-01-18T20:44:30.678Z,86.72
2018-01-18T20:45:30.646Z,87.49
2018-01-18T20:46:30.659Z,87.30
2018-01-18T20:47:30.608Z,86.54
2018-01-18T20:48:30.602Z,86.72
2018-01-18T20:49:30.557Z,86.54
2018-01-18T20:50:30.545Z,85.97
2018-01-18T20:51:30.522Z,87.11
2018-01-18T20:52:30.519Z,86.07
2018-01-18T20:53:30.487Z,85.30
2018-01-18T20:54:30.465Z,86.54
2018-01-18T20:55:30.452Z,87.87
2018-01-18T20:56:30.428Z,88.72
2018-01-18T20:57:30.421Z,88.91
2018-01-18T20:58:30.748Z,88.43
2018-01-18T20:59:30.377Z,88.81
2018-01-18T21:00:30.354Z,88.72
2018-01-18T21:01:30.325Z,89.58
2018-01-18T21:02:39.973Z,91.75
2018-01-18T21:04:23.788Z,92.09
2018-01-18T21:05:23.663Z,91.71
2018-01-18T21:06:23.653Z,90.86
2018-01-18T21:07:23.906Z,89.34
2018-01-18T21:08:23.909Z,90.19
2018-01-18T21:09:23.944Z,91.42
2018-01-18T21:10:23.877Z,91.24
2018-01-18T21:11:23.880Z,90.38
2018-01-18T21:12:23.877Z,90.76
2018-01-18T21:13:23.778Z,90.00
2018-01-18T21:14:23.765Z,89.62
2018-01-18T21:15:23.803Z,88.96
2018-01-18T21:16:23.726Z,89.53
2018-01-18T21:17:23.756Z,88.20
2018-01-18T21:18:23.395Z,88.96
2018-01-18T21:19:23.386Z,88.20
2018-01-18T21:20:23.351Z,87.45
2018-01-18T21:21:23.347Z,86.82
2018-01-18T21:22:23.319Z,87.58
2018-01-18T21:23:23.301Z,87.58
2018-01-18T21:24:23.316Z,87.77
2018-01-18T21:25:23.277Z,88.06
2018-01-18T21:26:23.240Z,87.58
2018-01-18T21:27:23.209Z,87.20
2018-01-18T21:28:23.220Z,87.77
2018-01-18T21:29:23.189Z,88.62
2018-01-18T21:30:23.173Z,88.91
2018-01-18T21:31:23.138Z,88.34
2018-01-18T21:32:23.119Z,89.48
2018-01-18T21:33:23.128Z,89.76
2018-01-18T21:34:23.084Z,89.06
2018-01-18T21:35:23.062Z,90.24
2018-01-18T21:36:23.037Z,87.49
2018-01-18T21:37:23.027Z,89.95
2018-01-18T21:38:22.999Z,90.67
2018-01-18T21:39:23.005Z,90.29
2018-01-18T21:40:22.977Z,90.57
2018-01-18T21:41:22.941Z,89.25
2018-01-18T21:42:22.947Z,90.38
2018-01-18T21:43:22.922Z,90.29
2018-01-18T21:44:22.899Z,90.00
2018-01-18T21:45:22.874Z,90.43
2018-01-18T21:46:22.880Z,91.05
2018-01-18T21:47:22.841Z,90.57
2018-01-18T21:48:22.815Z,89.06
2018-01-18T21:49:22.793Z,89.72
2018-01-18T21:50:22.777Z,90.81
2018-01-18T21:51:22.753Z,89.81
2018-01-18T21:52:22.734Z,91.05
2018-01-18T21:53:22.735Z,89.15
2018-01-18T21:54:22.701Z,88.72
2018-01-18T21:55:22.668Z,88.01
2018-01-18T21:56:22.665Z,88.20
2018-01-18T21:57:22.658Z,89.25
2018-01-18T21:58:22.615Z,88.53
2018-01-18T21:59:22.609Z,88.72
2018-01-18T22:00:22.581Z,88.24
2018-01-18T22:01:22.561Z,89.00
2018-01-18T22:02:22.570Z,89.00
2018-01-18T22:03:22.545Z,88.81
2018-01-18T22:04:22.500Z,89.29
2018-01-18T22:05:22.490Z,89.29
2018-01-18T22:06:22.468Z,89.10
2018-01-18T22:07:22.471Z,89.67
2018-01-18T22:08:22.423Z,89.39
2018-01-18T22:09:22.404Z,87.77
2018-01-18T22:10:22.388Z,87.77
2018-01-18T22:11:22.369Z,88.34
2018-01-18T22:12:22.356Z,88.91
2018-01-18T22:13:22.321Z,89.58
2018-01-18T22:14:22.308Z,89.76
2018-01-18T22:15:22.285Z,89.67
2018-01-18T22:16:22.298Z,89.48
2018-01-18T22:17:22.276Z,88.72
2018-01-18T22:18:22.237Z,89.29
2018-01-18T22:19:22.235Z,89.76
2018-01-18T22:20:22.199Z,89.29
2018-01-18T22:21:22.177Z,90.05
2018-01-18T22:22:22.158Z,90.43
2018-01-18T22:23:22.135Z,89.76
2018-01-18T22:24:22.129Z,89.95
2018-01-18T22:25:22.110Z,90.24
2018-01-18T22:26:22.071Z,89.58
2018-01-18T22:27:22.065Z,90.14
2018-01-18T22:28:22.047Z,89.95
2018-01-18T22:29:22.019Z,90.38
2018-01-18T22:30:22.000Z,89.76
2018-01-18T22:31:21.981Z,88.91
2018-01-18T22:32:21.964Z,89.34
2018-01-18T22:33:21.936Z,89.86
2018-01-18T22:34:21.920Z,91.09
2018-01-18T22:35:21.900Z,90.62
2018-01-18T22:36:21.885Z,90.86
2018-01-18T22:37:21.853Z,91.47
2018-01-18T22:38:21.846Z,91.99
2018-01-18T22:39:21.829Z,92.33
2018-01-18T22:40:21.800Z,92.47
2018-01-18T22:41:21.781Z,92.57
2018-01-18T22:42:21.768Z,93.32
2018-01-18T22:43:21.742Z,94.46
2018-01-18T22:44:21.724Z,94.46
2018-01-18T22:45:21.714Z,94.74
2018-01-18T22:46:21.691Z,95.31
2018-01-18T22:47:21.679Z,94.27
2018-01-18T22:48:21.647Z,93.70
2018-01-18T22:49:21.656Z,93.99
2018-01-18T22:50:21.611Z,94.74
2018-01-18T22:51:21.590Z,96.36
2018-01-18T22:52:21.565Z,96.55
2018-01-18T22:53:21.570Z,96.73
2018-01-18T22:54:21.551Z,97.21
2018-01-18T22:55:21.513Z,96.92
2018-01-18T22:56:21.493Z,96.36
2018-01-18T22:57:21.477Z,98.73
2018-01-18T22:58:21.455Z,99.58
2018-01-18T22:59:21.433Z,99.87
2018-01-18T23:00:21.410Z,98.25
2018-01-18T23:01:21.420Z,99.96
2018-01-18T23:02:21.379Z,99.99
2018-01-18T23:03:21.353Z,99.99
2018-01-18T23:04:21.353Z,99.99
2018-01-18T23:05:21.316Z,99.99
2018-01-18T23:06:21.295Z,99.99
2018-01-18T23:07:21.280Z,99.99
2018-01-18T23:08:21.253Z,99.99
2018-01-18T23:09:21.242Z,99.99
2018-01-18T23:10:21.213Z,99.99
2018-01-18T23:11:21.213Z,99.99
2018-01-18T23:12:21.206Z,99.91
2018-01-18T23:13:21.155Z,99.99
2018-01-18T23:14:21.132Z,99.99
2018-01-18T23:15:21.113Z,99.99
2018-01-18T23:16:21.098Z,99.99
2018-01-18T23:17:21.088Z,99.99
2018-01-18T23:18:21.064Z,99.99
2018-01-18T23:19:21.041Z,99.99
2018-01-18T23:20:21.031Z,99.99
2018-01-18T23:21:21.004Z,99.99
2018-01-18T23:22:20.990Z,99.99
2018-01-18T23:23:20.958Z,99.99
2018-01-18T23:24:20.938Z,99.99
2018-01-18T23:25:20.926Z,99.99
2018-01-18T23:26:20.916Z,99.99
2018-01-18T23:27:20.900Z,99.99
2018-01-18T23:28:20.865Z,99.99
2018-01-18T23:29:20.838Z,99.99
2018-01-18T23:30:20.868Z,99.99
2018-01-18T23:31:20.803Z,99.99
2018-01-18T23:32:20.787Z,99.99
2018-01-18T23:33:20.758Z,99.99
2018-01-18T23:34:20.742Z,99.99
2018-01-18T23:35:20.720Z,99.99
2018-01-18T23:36:20.694Z,99.99
2018-01-18T23:37:20.678Z,99.99
2018-01-18T23:38:20.671Z,99.99
2018-01-18T23:39:20.643Z,99.99
2018-01-18T23:40:20.618Z,99.99
2018-01-18T23:41:20.599Z,99.99
2018-01-18T23:42:20.586Z,99.99
2018-01-18T23:43:20.561Z,99.99
2018-01-18T23:44:20.541Z,99.99
2018-01-18T23:45:20.519Z,99.99
2018-01-18T23:46:20.497Z,99.99
2018-01-18T23:47:20.484Z,99.99
2018-01-18T23:48:20.467Z,99.99
2018-01-18T23:49:20.442Z,99.99
2018-01-18T23:50:20.464Z,99.99
2018-01-18T23:51:20.397Z,99.99
2018-01-18T23:52:20.378Z,99.99
2018-01-18T23:53:20.361Z,99.99
2018-01-18T23:54:20.342Z,99.99
2018-01-18T23:55:20.322Z,99.99
2018-01-18T23:56:20.297Z,99.99
2018-01-18T23:57:20.291Z,99.99
2018-01-18T23:58:20.263Z,99.99
2018-01-18T23:59:20.232Z,99.99
